sensor_id;sensor_type;location;lat;lon;timestamp;temperature;humidity
24144;DHT22;12307;50.828;6.080;2023-06-22T00:02:17;25.70;66.30
24144;DHT22;12307;50.828;6.080;2023-06-22T00:04:43;25.70;66.30
24144;DHT22;12307;50.828;6.080;2023-06-22T00:07:09;25.70;66.30
24144;DHT22;12307;50.828;6.080;2023-06-22T00:09:34;25.70;66.30
24144;DHT22;12307;50.828;6.080;2023-06-22T00:12:02;25.70;66.30
24144;DHT22;12307;50.828;6.080;2023-06-22T00:14:28;25.70;66.30
24144;DHT22;12307;50.828;6.080;2023-06-22T00:16:53;25.70;66.30
24144;DHT22;12307;50.828;6.080;2023-06-22T00:19:20;25.70;66.40
24144;DHT22;12307;50.828;6.080;2023-06-22T00:21:47;25.60;66.30
24144;DHT22;12307;50.828;6.080;2023-06-22T00:24:12;25.60;66.40
24144;DHT22;12307;50.828;6.080;2023-06-22T00:26:38;25.60;66.30
24144;DHT22;12307;50.828;6.080;2023-06-22T00:29:05;25.60;66.30
24144;DHT22;12307;50.828;6.080;2023-06-22T00:31:31;25.60;66.50
24144;DHT22;12307;50.828;6.080;2023-06-22T00:33:56;25.60;66.40
24144;DHT22;12307;50.828;6.080;2023-06-22T00:36:22;25.60;66.50
24144;DHT22;12307;50.828;6.080;2023-06-22T00:38:48;25.60;66.50
24144;DHT22;12307;50.828;6.080;2023-06-22T00:41:16;25.60;66.50
24144;DHT22;12307;50.828;6.080;2023-06-22T00:43:41;25.60;66.50
24144;DHT22;12307;50.828;6.080;2023-06-22T00:46:09;25.60;66.60
24144;DHT22;12307;50.828;6.080;2023-06-22T00:48:35;25.60;66.60
24144;DHT22;12307;50.828;6.080;2023-06-22T00:51:02;25.60;66.60
24144;DHT22;12307;50.828;6.080;2023-06-22T00:53:28;25.50;66.50
24144;DHT22;12307;50.828;6.080;2023-06-22T00:55:54;25.60;66.60
24144;DHT22;12307;50.828;6.080;2023-06-22T00:58:21;25.60;66.60
24144;DHT22;12307;50.828;6.080;2023-06-22T01:00:47;25.60;66.70
24144;DHT22;12307;50.828;6.080;2023-06-22T01:03:14;25.50;66.60
24144;DHT22;12307;50.828;6.080;2023-06-22T01:05:42;25.60;66.70
24144;DHT22;12307;50.828;6.080;2023-06-22T01:08:20;25.50;66.70
24144;DHT22;12307;50.828;6.080;2023-06-22T01:10:51;25.50;66.70
24144;DHT22;12307;50.828;6.080;2023-06-22T01:13:36;25.50;66.70
24144;DHT22;12307;50.828;6.080;2023-06-22T01:16:05;25.50;66.80
24144;DHT22;12307;50.828;6.080;2023-06-22T01:18:35;25.50;66.70
24144;DHT22;12307;50.828;6.080;2023-06-22T01:21:04;25.50;66.80
24144;DHT22;12307;50.828;6.080;2023-06-22T01:23:46;25.50;66.80
24144;DHT22;12307;50.828;6.080;2023-06-22T01:26:18;25.50;66.80
24144;DHT22;12307;50.828;6.080;2023-06-22T01:28:49;25.50;66.80
24144;DHT22;12307;50.828;6.080;2023-06-22T01:31:17;25.50;66.80
24144;DHT22;12307;50.828;6.080;2023-06-22T01:33:46;25.50;66.80
24144;DHT22;12307;50.828;6.080;2023-06-22T01:36:13;25.40;66.80
24144;DHT22;12307;50.828;6.080;2023-06-22T01:38:39;25.50;66.80
24144;DHT22;12307;50.828;6.080;2023-06-22T01:41:06;25.50;66.90
24144;DHT22;12307;50.828;6.080;2023-06-22T01:43:32;25.40;66.80
24144;DHT22;12307;50.828;6.080;2023-06-22T01:46:01;25.40;66.80
24144;DHT22;12307;50.828;6.080;2023-06-22T01:48:27;25.40;66.90
24144;DHT22;12307;50.828;6.080;2023-06-22T01:50:54;25.40;66.90
24144;DHT22;12307;50.828;6.080;2023-06-22T01:53:20;25.40;66.90
24144;DHT22;12307;50.828;6.080;2023-06-22T01:55:46;25.40;66.90
24144;DHT22;12307;50.828;6.080;2023-06-22T01:58:12;25.40;67.00
24144;DHT22;12307;50.828;6.080;2023-06-22T02:00:41;25.40;67.00
24144;DHT22;12307;50.828;6.080;2023-06-22T02:03:13;25.40;67.00
24144;DHT22;12307;50.828;6.080;2023-06-22T02:05:47;25.40;67.00
24144;DHT22;12307;50.828;6.080;2023-06-22T02:08:17;25.40;67.00
24144;DHT22;12307;50.828;6.080;2023-06-22T02:10:46;25.40;67.00
24144;DHT22;12307;50.828;6.080;2023-06-22T02:13:14;25.40;67.00
24144;DHT22;12307;50.828;6.080;2023-06-22T02:15:41;25.40;67.00
24144;DHT22;12307;50.828;6.080;2023-06-22T02:18:08;25.40;67.00
24144;DHT22;12307;50.828;6.080;2023-06-22T02:20:36;25.40;67.10
24144;DHT22;12307;50.828;6.080;2023-06-22T02:23:02;25.40;67.10
24144;DHT22;12307;50.828;6.080;2023-06-22T02:25:28;25.40;67.10
24144;DHT22;12307;50.828;6.080;2023-06-22T02:27:53;25.40;67.10
24144;DHT22;12307;50.828;6.080;2023-06-22T02:30:19;25.40;67.10
24144;DHT22;12307;50.828;6.080;2023-06-22T02:32:45;25.40;67.10
24144;DHT22;12307;50.828;6.080;2023-06-22T02:35:12;25.30;67.10
24144;DHT22;12307;50.828;6.080;2023-06-22T02:37:38;25.30;67.10
24144;DHT22;12307;50.828;6.080;2023-06-22T02:40:08;25.30;67.10
24144;DHT22;12307;50.828;6.080;2023-06-22T02:42:36;25.30;67.10
24144;DHT22;12307;50.828;6.080;2023-06-22T02:45:02;25.30;67.20
24144;DHT22;12307;50.828;6.080;2023-06-22T02:47:28;25.30;67.20
24144;DHT22;12307;50.828;6.080;2023-06-22T02:49:54;25.30;67.20
24144;DHT22;12307;50.828;6.080;2023-06-22T02:52:21;25.30;67.20
24144;DHT22;12307;50.828;6.080;2023-06-22T02:54:47;25.30;67.20
24144;DHT22;12307;50.828;6.080;2023-06-22T02:57:12;25.30;67.20
24144;DHT22;12307;50.828;6.080;2023-06-22T02:59:39;25.30;68.10
24144;DHT22;12307;50.828;6.080;2023-06-22T03:02:06;25.30;67.30
24144;DHT22;12307;50.828;6.080;2023-06-22T03:04:31;25.30;67.20
24144;DHT22;12307;50.828;6.080;2023-06-22T03:06:57;25.30;67.20
24144;DHT22;12307;50.828;6.080;2023-06-22T03:09:27;25.30;67.20
24144;DHT22;12307;50.828;6.080;2023-06-22T03:11:53;25.30;67.20
24144;DHT22;12307;50.828;6.080;2023-06-22T03:14:19;25.20;67.10
24144;DHT22;12307;50.828;6.080;2023-06-22T03:16:45;25.20;67.20
24144;DHT22;12307;50.828;6.080;2023-06-22T03:19:11;25.20;67.20
24144;DHT22;12307;50.828;6.080;2023-06-22T03:21:37;25.20;67.30
24144;DHT22;12307;50.828;6.080;2023-06-22T03:24:06;25.20;67.30
24144;DHT22;12307;50.828;6.080;2023-06-22T03:26:34;25.20;67.30
24144;DHT22;12307;50.828;6.080;2023-06-22T03:29:00;25.20;67.30
24144;DHT22;12307;50.828;6.080;2023-06-22T03:31:26;25.20;67.30
24144;DHT22;12307;50.828;6.080;2023-06-22T03:33:52;25.20;67.30
24144;DHT22;12307;50.828;6.080;2023-06-22T03:36:18;25.20;67.40
24144;DHT22;12307;50.828;6.080;2023-06-22T03:38:48;25.20;67.30
24144;DHT22;12307;50.828;6.080;2023-06-22T03:41:14;25.20;67.40
24144;DHT22;12307;50.828;6.080;2023-06-22T03:43:41;25.20;67.40
24144;DHT22;12307;50.828;6.080;2023-06-22T03:46:08;25.20;67.40
24144;DHT22;12307;50.828;6.080;2023-06-22T03:48:34;25.20;67.40
24144;DHT22;12307;50.828;6.080;2023-06-22T03:51:00;25.20;67.40
24144;DHT22;12307;50.828;6.080;2023-06-22T03:53:26;25.20;67.40
24144;DHT22;12307;50.828;6.080;2023-06-22T03:55:52;25.20;67.40
24144;DHT22;12307;50.828;6.080;2023-06-22T03:58:20;25.10;67.30
24144;DHT22;12307;50.828;6.080;2023-06-22T04:00:48;25.20;67.40
24144;DHT22;12307;50.828;6.080;2023-06-22T04:03:14;25.10;67.30
24144;DHT22;12307;50.828;6.080;2023-06-22T04:05:40;25.10;67.40
24144;DHT22;12307;50.828;6.080;2023-06-22T04:08:06;25.10;67.40
24144;DHT22;12307;50.828;6.080;2023-06-22T04:10:32;25.10;67.40
24144;DHT22;12307;50.828;6.080;2023-06-22T04:12:57;25.10;67.40
24144;DHT22;12307;50.828;6.080;2023-06-22T04:15:23;25.10;67.40
24144;DHT22;12307;50.828;6.080;2023-06-22T04:17:50;25.10;67.40
24144;DHT22;12307;50.828;6.080;2023-06-22T04:20:16;25.10;67.50
24144;DHT22;12307;50.828;6.080;2023-06-22T04:22:41;25.10;67.40
24144;DHT22;12307;50.828;6.080;2023-06-22T04:25:07;25.10;67.40
24144;DHT22;12307;50.828;6.080;2023-06-22T04:27:33;25.10;67.40
24144;DHT22;12307;50.828;6.080;2023-06-22T04:30:03;25.10;67.50
24144;DHT22;12307;50.828;6.080;2023-06-22T04:32:29;25.10;67.50
24144;DHT22;12307;50.828;6.080;2023-06-22T04:34:56;25.10;67.50
24144;DHT22;12307;50.828;6.080;2023-06-22T04:37:21;25.10;67.50
24144;DHT22;12307;50.828;6.080;2023-06-22T04:39:48;25.10;67.50
24144;DHT22;12307;50.828;6.080;2023-06-22T04:42:14;25.10;67.50
24144;DHT22;12307;50.828;6.080;2023-06-22T04:44:40;25.10;67.50
24144;DHT22;12307;50.828;6.080;2023-06-22T04:47:07;25.10;67.50
24144;DHT22;12307;50.828;6.080;2023-06-22T04:49:34;25.10;67.50
24144;DHT22;12307;50.828;6.080;2023-06-22T04:52:05;25.10;67.50
24144;DHT22;12307;50.828;6.080;2023-06-22T04:54:31;25.10;67.50
24144;DHT22;12307;50.828;6.080;2023-06-22T04:57:00;25.10;67.50
24144;DHT22;12307;50.828;6.080;2023-06-22T04:59:27;25.10;67.50
24144;DHT22;12307;50.828;6.080;2023-06-22T05:01:56;25.10;67.50
24144;DHT22;12307;50.828;6.080;2023-06-22T05:04:22;25.10;67.50
24144;DHT22;12307;50.828;6.080;2023-06-22T05:06:49;25.10;67.50
24144;DHT22;12307;50.828;6.080;2023-06-22T05:09:16;25.10;68.50
24144;DHT22;12307;50.828;6.080;2023-06-22T05:11:42;25.10;67.50
24144;DHT22;12307;50.828;6.080;2023-06-22T05:14:08;25.10;68.30
24144;DHT22;12307;50.828;6.080;2023-06-22T05:16:34;25.10;67.50
24144;DHT22;12307;50.828;6.080;2023-06-22T05:19:00;25.10;67.50
24144;DHT22;12307;50.828;6.080;2023-06-22T05:21:29;25.10;67.50
24144;DHT22;12307;50.828;6.080;2023-06-22T05:23:55;25.10;67.50
24144;DHT22;12307;50.828;6.080;2023-06-22T05:26:26;25.10;67.40
24144;DHT22;12307;50.828;6.080;2023-06-22T05:28:53;25.10;67.50
24144;DHT22;12307;50.828;6.080;2023-06-22T05:31:19;25.10;67.40
24144;DHT22;12307;50.828;6.080;2023-06-22T05:33:46;25.10;67.40
24144;DHT22;12307;50.828;6.080;2023-06-22T05:36:12;25.10;67.40
24144;DHT22;12307;50.828;6.080;2023-06-22T05:38:39;25.10;67.50
24144;DHT22;12307;50.828;6.080;2023-06-22T05:41:05;25.10;67.40
24144;DHT22;12307;50.828;6.080;2023-06-22T05:43:32;25.10;67.50
24144;DHT22;12307;50.828;6.080;2023-06-22T05:45:59;25.10;67.50
24144;DHT22;12307;50.828;6.080;2023-06-22T05:48:24;25.10;67.40
24144;DHT22;12307;50.828;6.080;2023-06-22T05:50:50;25.10;67.50
24144;DHT22;12307;50.828;6.080;2023-06-22T05:53:16;25.10;67.50
24144;DHT22;12307;50.828;6.080;2023-06-22T05:55:42;25.10;67.50
24144;DHT22;12307;50.828;6.080;2023-06-22T05:58:08;25.10;67.40
24144;DHT22;12307;50.828;6.080;2023-06-22T06:00:35;25.10;67.40
24144;DHT22;12307;50.828;6.080;2023-06-22T06:03:01;25.10;67.40
24144;DHT22;12307;50.828;6.080;2023-06-22T06:05:29;25.10;67.40
24144;DHT22;12307;50.828;6.080;2023-06-22T06:07:54;25.10;67.40
24144;DHT22;12307;50.828;6.080;2023-06-22T06:10:20;25.10;67.40
24144;DHT22;12307;50.828;6.080;2023-06-22T06:12:46;25.10;68.20
24144;DHT22;12307;50.828;6.080;2023-06-22T06:15:11;25.10;67.40
24144;DHT22;12307;50.828;6.080;2023-06-22T06:17:46;25.10;67.40
24144;DHT22;12307;50.828;6.080;2023-06-22T06:20:12;25.10;67.40
24144;DHT22;12307;50.828;6.080;2023-06-22T06:22:38;25.10;67.40
24144;DHT22;12307;50.828;6.080;2023-06-22T06:25:04;25.10;67.40
24144;DHT22;12307;50.828;6.080;2023-06-22T06:27:30;25.10;67.40
24144;DHT22;12307;50.828;6.080;2023-06-22T06:29:56;25.10;67.30
24144;DHT22;12307;50.828;6.080;2023-06-22T06:32:22;25.10;67.30
24144;DHT22;12307;50.828;6.080;2023-06-22T06:34:49;25.10;67.30
24144;DHT22;12307;50.828;6.080;2023-06-22T06:37:16;25.10;67.30
24144;DHT22;12307;50.828;6.080;2023-06-22T06:39:41;25.10;67.30
24144;DHT22;12307;50.828;6.080;2023-06-22T06:42:07;25.10;67.30
24144;DHT22;12307;50.828;6.080;2023-06-22T06:44:33;25.10;67.30
24144;DHT22;12307;50.828;6.080;2023-06-22T06:46:59;25.10;67.30
24144;DHT22;12307;50.828;6.080;2023-06-22T06:49:25;25.10;67.30
24144;DHT22;12307;50.828;6.080;2023-06-22T06:51:52;25.10;67.30
24144;DHT22;12307;50.828;6.080;2023-06-22T06:54:18;25.10;67.20
24144;DHT22;12307;50.828;6.080;2023-06-22T06:56:46;25.10;67.30
24144;DHT22;12307;50.828;6.080;2023-06-22T06:59:13;25.20;67.30
24144;DHT22;12307;50.828;6.080;2023-06-22T07:01:39;25.10;67.20
24144;DHT22;12307;50.828;6.080;2023-06-22T07:04:05;25.20;67.30
24144;DHT22;12307;50.828;6.080;2023-06-22T07:06:30;25.10;67.20
24144;DHT22;12307;50.828;6.080;2023-06-22T07:08:59;25.20;67.30
24144;DHT22;12307;50.828;6.080;2023-06-22T07:11:25;25.20;67.30
24144;DHT22;12307;50.828;6.080;2023-06-22T07:13:51;25.20;67.20
24144;DHT22;12307;50.828;6.080;2023-06-22T07:16:16;25.20;67.20
24144;DHT22;12307;50.828;6.080;2023-06-22T07:18:42;25.20;67.10
24144;DHT22;12307;50.828;6.080;2023-06-22T07:21:08;25.20;67.10
24144;DHT22;12307;50.828;6.080;2023-06-22T07:23:33;25.20;67.20
24144;DHT22;12307;50.828;6.080;2023-06-22T07:26:00;25.20;67.10
24144;DHT22;12307;50.828;6.080;2023-06-22T07:28:31;25.20;67.10
24144;DHT22;12307;50.828;6.080;2023-06-22T07:31:02;25.20;67.10
24144;DHT22;12307;50.828;6.080;2023-06-22T07:33:28;25.20;67.30
24144;DHT22;12307;50.828;6.080;2023-06-22T07:35:54;25.20;67.40
24144;DHT22;12307;50.828;6.080;2023-06-22T07:38:19;25.20;67.50
24144;DHT22;12307;50.828;6.080;2023-06-22T07:40:45;25.30;67.70
24144;DHT22;12307;50.828;6.080;2023-06-22T07:43:12;25.30;67.80
24144;DHT22;12307;50.828;6.080;2023-06-22T07:45:38;25.40;67.90
24144;DHT22;12307;50.828;6.080;2023-06-22T07:48:05;25.40;68.00
24144;DHT22;12307;50.828;6.080;2023-06-22T07:50:31;25.40;68.80
24144;DHT22;12307;50.828;6.080;2023-06-22T07:52:56;25.40;68.00
24144;DHT22;12307;50.828;6.080;2023-06-22T07:55:22;25.40;67.80
24144;DHT22;12307;50.828;6.080;2023-06-22T07:57:49;25.40;67.80
24144;DHT22;12307;50.828;6.080;2023-06-22T08:00:18;25.40;67.80
24144;DHT22;12307;50.828;6.080;2023-06-22T08:02:46;25.40;68.00
24144;DHT22;12307;50.828;6.080;2023-06-22T08:05:13;25.50;68.30
24144;DHT22;12307;50.828;6.080;2023-06-22T08:07:38;25.50;68.30
24144;DHT22;12307;50.828;6.080;2023-06-22T08:10:05;25.60;68.40
24144;DHT22;12307;50.828;6.080;2023-06-22T08:12:31;25.60;68.50
24144;DHT22;12307;50.828;6.080;2023-06-22T08:14:57;25.60;68.50
24144;DHT22;12307;50.828;6.080;2023-06-22T08:17:24;25.70;68.50
24144;DHT22;12307;50.828;6.080;2023-06-22T08:19:50;25.70;68.50
24144;DHT22;12307;50.828;6.080;2023-06-22T08:22:16;25.80;68.60
24144;DHT22;12307;50.828;6.080;2023-06-22T08:24:42;25.80;68.60
24144;DHT22;12307;50.828;6.080;2023-06-22T08:27:09;25.90;68.70
24144;DHT22;12307;50.828;6.080;2023-06-22T08:29:35;26.00;68.80
24144;DHT22;12307;50.828;6.080;2023-06-22T08:32:01;26.00;68.70
24144;DHT22;12307;50.828;6.080;2023-06-22T08:34:28;26.10;68.80
24144;DHT22;12307;50.828;6.080;2023-06-22T08:36:54;26.10;68.80
24144;DHT22;12307;50.828;6.080;2023-06-22T08:39:20;26.10;68.80
24144;DHT22;12307;50.828;6.080;2023-06-22T08:41:46;26.20;69.00
24144;DHT22;12307;50.828;6.080;2023-06-22T08:44:11;26.30;68.90
24144;DHT22;12307;50.828;6.080;2023-06-22T08:46:37;26.40;69.00
24144;DHT22;12307;50.828;6.080;2023-06-22T08:49:04;26.50;68.90
24144;DHT22;12307;50.828;6.080;2023-06-22T08:51:31;26.60;68.60
24144;DHT22;12307;50.828;6.080;2023-06-22T08:53:57;26.70;68.60
24144;DHT22;12307;50.828;6.080;2023-06-22T08:56:23;26.80;68.60
24144;DHT22;12307;50.828;6.080;2023-06-22T08:58:48;26.90;68.60
24144;DHT22;12307;50.828;6.080;2023-06-22T09:01:14;27.10;68.50
24144;DHT22;12307;50.828;6.080;2023-06-22T09:03:40;27.20;68.40
24144;DHT22;12307;50.828;6.080;2023-06-22T09:06:06;27.30;68.30
24144;DHT22;12307;50.828;6.080;2023-06-22T09:08:35;27.30;68.20
24144;DHT22;12307;50.828;6.080;2023-06-22T09:11:01;27.30;68.20
24144;DHT22;12307;50.828;6.080;2023-06-22T09:15:54;27.30;68.10
24144;DHT22;12307;50.828;6.080;2023-06-22T09:18:20;27.20;68.00
24144;DHT22;12307;50.828;6.080;2023-06-22T09:20:46;27.20;68.10
24144;DHT22;12307;50.828;6.080;2023-06-22T09:23:12;27.10;68.10
24144;DHT22;12307;50.828;6.080;2023-06-22T09:25:39;27.10;68.20
24144;DHT22;12307;50.828;6.080;2023-06-22T09:28:06;27.00;68.20
24144;DHT22;12307;50.828;6.080;2023-06-22T09:30:31;27.00;69.20
24144;DHT22;12307;50.828;6.080;2023-06-22T09:32:57;27.00;68.50
24144;DHT22;12307;50.828;6.080;2023-06-22T09:35:23;26.90;68.60
24144;DHT22;12307;50.828;6.080;2023-06-22T09:37:48;26.90;68.70
24144;DHT22;12307;50.828;6.080;2023-06-22T09:40:14;26.90;68.90
24144;DHT22;12307;50.828;6.080;2023-06-22T09:42:43;26.90;69.00
24144;DHT22;12307;50.828;6.080;2023-06-22T09:45:09;26.90;69.00
24144;DHT22;12307;50.828;6.080;2023-06-22T09:47:36;26.90;69.10
24144;DHT22;12307;50.828;6.080;2023-06-22T09:50:02;26.80;69.10
24144;DHT22;12307;50.828;6.080;2023-06-22T09:52:28;26.80;69.30
24144;DHT22;12307;50.828;6.080;2023-06-22T09:54:53;26.80;69.40
24144;DHT22;12307;50.828;6.080;2023-06-22T09:57:19;26.70;69.50
24144;DHT22;12307;50.828;6.080;2023-06-22T09:59:46;26.70;69.60
24144;DHT22;12307;50.828;6.080;2023-06-22T10:02:12;26.70;69.70
24144;DHT22;12307;50.828;6.080;2023-06-22T10:04:38;26.80;70.10
24144;DHT22;12307;50.828;6.080;2023-06-22T10:07:05;26.80;70.20
24144;DHT22;12307;50.828;6.080;2023-06-22T10:09:31;26.80;70.40
24144;DHT22;12307;50.828;6.080;2023-06-22T10:11:57;26.80;70.70
24144;DHT22;12307;50.828;6.080;2023-06-22T10:14:23;26.90;71.20
24144;DHT22;12307;50.828;6.080;2023-06-22T10:16:52;26.80;71.40
24144;DHT22;12307;50.828;6.080;2023-06-22T10:19:18;26.80;72.00
24144;DHT22;12307;50.828;6.080;2023-06-22T10:21:43;26.80;72.30
24144;DHT22;12307;50.828;6.080;2023-06-22T10:24:09;26.80;72.60
24144;DHT22;12307;50.828;6.080;2023-06-22T10:26:35;26.80;72.90
24144;DHT22;12307;50.828;6.080;2023-06-22T10:29:02;26.80;73.10
24144;DHT22;12307;50.828;6.080;2023-06-22T10:31:28;26.80;73.40
24144;DHT22;12307;50.828;6.080;2023-06-22T10:33:55;26.80;73.50
24144;DHT22;12307;50.828;6.080;2023-06-22T10:36:21;26.70;73.90
24144;DHT22;12307;50.828;6.080;2023-06-22T10:38:47;26.70;74.30
24144;DHT22;12307;50.828;6.080;2023-06-22T10:41:13;26.70;74.60
24144;DHT22;12307;50.828;6.080;2023-06-22T10:43:39;26.70;75.10
24144;DHT22;12307;50.828;6.080;2023-06-22T10:46:06;26.60;75.40
24144;DHT22;12307;50.828;6.080;2023-06-22T10:48:31;26.60;76.20
24144;DHT22;12307;50.828;6.080;2023-06-22T10:50:58;26.50;76.70
24144;DHT22;12307;50.828;6.080;2023-06-22T10:53:24;26.40;77.60
24144;DHT22;12307;50.828;6.080;2023-06-22T10:55:50;26.40;77.80
24144;DHT22;12307;50.828;6.080;2023-06-22T10:58:17;26.40;78.30
24144;DHT22;12307;50.828;6.080;2023-06-22T11:00:43;26.40;79.10
24144;DHT22;12307;50.828;6.080;2023-06-22T11:03:09;26.40;80.50
24144;DHT22;12307;50.828;6.080;2023-06-22T11:05:34;26.30;80.20
24144;DHT22;12307;50.828;6.080;2023-06-22T11:08:02;26.30;80.40
24144;DHT22;12307;50.828;6.080;2023-06-22T11:10:27;26.30;80.60
24144;DHT22;12307;50.828;6.080;2023-06-22T11:12:53;26.30;81.10
24144;DHT22;12307;50.828;6.080;2023-06-22T11:15:19;26.30;81.10
24144;DHT22;12307;50.828;6.080;2023-06-22T11:17:44;26.30;81.10
24144;DHT22;12307;50.828;6.080;2023-06-22T11:20:11;26.40;81.20
24144;DHT22;12307;50.828;6.080;2023-06-22T11:22:37;26.40;81.30
24144;DHT22;12307;50.828;6.080;2023-06-22T11:25:07;26.50;81.60
24144;DHT22;12307;50.828;6.080;2023-06-22T11:27:33;26.50;81.60
24144;DHT22;12307;50.828;6.080;2023-06-22T11:29:58;26.50;81.60
24144;DHT22;12307;50.828;6.080;2023-06-22T11:32:24;26.60;81.50
24144;DHT22;12307;50.828;6.080;2023-06-22T11:34:50;26.70;81.50
24144;DHT22;12307;50.828;6.080;2023-06-22T11:37:16;26.80;82.30
24144;DHT22;12307;50.828;6.080;2023-06-22T11:39:42;26.90;81.50
24144;DHT22;12307;50.828;6.080;2023-06-22T11:42:09;26.90;81.30
24144;DHT22;12307;50.828;6.080;2023-06-22T11:44:35;27.00;81.20
24144;DHT22;12307;50.828;6.080;2023-06-22T11:47:00;27.00;81.00
24144;DHT22;12307;50.828;6.080;2023-06-22T11:49:29;27.10;81.00
24144;DHT22;12307;50.828;6.080;2023-06-22T11:51:55;27.10;80.80
24144;DHT22;12307;50.828;6.080;2023-06-22T11:54:20;27.10;80.70
24144;DHT22;12307;50.828;6.080;2023-06-22T11:56:46;27.10;80.50
24144;DHT22;12307;50.828;6.080;2023-06-22T11:59:13;27.00;80.40
24144;DHT22;12307;50.828;6.080;2023-06-22T12:01:39;27.00;80.30
24144;DHT22;12307;50.828;6.080;2023-06-22T12:04:05;27.00;80.50
24144;DHT22;12307;50.828;6.080;2023-06-22T12:06:31;27.00;80.30
24144;DHT22;12307;50.828;6.080;2023-06-22T12:08:59;27.00;80.30
24144;DHT22;12307;50.828;6.080;2023-06-22T12:11:24;27.10;80.30
24144;DHT22;12307;50.828;6.080;2023-06-22T12:13:50;27.00;80.00
24144;DHT22;12307;50.828;6.080;2023-06-22T12:16:17;27.10;80.00
24144;DHT22;12307;50.828;6.080;2023-06-22T12:18:43;27.10;79.90
24144;DHT22;12307;50.828;6.080;2023-06-22T12:21:08;27.10;79.70
24144;DHT22;12307;50.828;6.080;2023-06-22T12:23:34;27.10;79.60
24144;DHT22;12307;50.828;6.080;2023-06-22T12:26:00;27.10;79.50
24144;DHT22;12307;50.828;6.080;2023-06-22T12:28:27;27.10;79.40
24144;DHT22;12307;50.828;6.080;2023-06-22T12:30:52;27.10;79.20
24144;DHT22;12307;50.828;6.080;2023-06-22T12:33:19;27.20;79.20
24144;DHT22;12307;50.828;6.080;2023-06-22T12:35:45;27.20;79.00
24144;DHT22;12307;50.828;6.080;2023-06-22T12:38:11;27.30;78.90
24144;DHT22;12307;50.828;6.080;2023-06-22T12:40:37;27.30;78.60
24144;DHT22;12307;50.828;6.080;2023-06-22T12:43:02;27.40;78.60
24144;DHT22;12307;50.828;6.080;2023-06-22T12:45:28;27.40;78.40
24144;DHT22;12307;50.828;6.080;2023-06-22T12:47:57;27.40;78.20
24144;DHT22;12307;50.828;6.080;2023-06-22T12:50:24;27.40;78.10
24144;DHT22;12307;50.828;6.080;2023-06-22T12:52:50;27.40;78.00
24144;DHT22;12307;50.828;6.080;2023-06-22T12:55:15;27.40;77.90
24144;DHT22;12307;50.828;6.080;2023-06-22T12:57:41;27.40;77.70
24144;DHT22;12307;50.828;6.080;2023-06-22T13:00:08;27.40;77.60
24144;DHT22;12307;50.828;6.080;2023-06-22T13:02:35;27.40;77.50
24144;DHT22;12307;50.828;6.080;2023-06-22T13:05:01;27.40;77.50
24144;DHT22;12307;50.828;6.080;2023-06-22T13:07:28;27.40;77.30
24144;DHT22;12307;50.828;6.080;2023-06-22T13:09:54;27.30;77.10
24144;DHT22;12307;50.828;6.080;2023-06-22T13:12:20;27.30;77.10
24144;DHT22;12307;50.828;6.080;2023-06-22T13:14:46;27.30;77.00
24144;DHT22;12307;50.828;6.080;2023-06-22T13:17:12;27.30;77.00
24144;DHT22;12307;50.828;6.080;2023-06-22T13:19:38;27.20;77.00
24144;DHT22;12307;50.828;6.080;2023-06-22T13:22:04;27.20;77.00
24144;DHT22;12307;50.828;6.080;2023-06-22T13:24:32;27.20;77.10
24144;DHT22;12307;50.828;6.080;2023-06-22T13:26:57;27.20;77.30
24144;DHT22;12307;50.828;6.080;2023-06-22T13:29:23;27.10;77.20
24144;DHT22;12307;50.828;6.080;2023-06-22T13:31:49;27.10;77.20
24144;DHT22;12307;50.828;6.080;2023-06-22T13:34:15;27.10;77.50
24144;DHT22;12307;50.828;6.080;2023-06-22T13:36:41;27.10;77.60
24144;DHT22;12307;50.828;6.080;2023-06-22T13:39:06;27.00;77.60
24144;DHT22;12307;50.828;6.080;2023-06-22T13:41:34;27.00;77.60
24144;DHT22;12307;50.828;6.080;2023-06-22T13:43:59;27.00;77.70
24144;DHT22;12307;50.828;6.080;2023-06-22T13:46:25;27.00;77.70
24144;DHT22;12307;50.828;6.080;2023-06-22T13:48:51;27.00;77.70
24144;DHT22;12307;50.828;6.080;2023-06-22T13:51:16;26.90;77.70
24144;DHT22;12307;50.828;6.080;2023-06-22T13:53:42;26.90;77.70
24144;DHT22;12307;50.828;6.080;2023-06-22T13:56:08;26.90;77.80
24144;DHT22;12307;50.828;6.080;2023-06-22T13:58:35;26.90;77.80
24144;DHT22;12307;50.828;6.080;2023-06-22T14:01:00;26.90;77.80
24144;DHT22;12307;50.828;6.080;2023-06-22T14:03:26;26.80;77.90
24144;DHT22;12307;50.828;6.080;2023-06-22T14:05:52;26.80;78.10
24144;DHT22;12307;50.828;6.080;2023-06-22T14:08:21;26.80;78.20
24144;DHT22;12307;50.828;6.080;2023-06-22T14:10:49;26.80;78.30
24144;DHT22;12307;50.828;6.080;2023-06-22T14:13:14;26.70;78.30
24144;DHT22;12307;50.828;6.080;2023-06-22T14:15:41;26.70;78.40
24144;DHT22;12307;50.828;6.080;2023-06-22T14:18:08;26.70;78.60
24144;DHT22;12307;50.828;6.080;2023-06-22T14:20:33;26.70;78.60
24144;DHT22;12307;50.828;6.080;2023-06-22T14:22:59;26.70;78.60
24144;DHT22;12307;50.828;6.080;2023-06-22T14:25:25;26.70;78.60
24144;DHT22;12307;50.828;6.080;2023-06-22T14:27:51;26.70;78.60
24144;DHT22;12307;50.828;6.080;2023-06-22T14:30:16;26.70;78.40
24144;DHT22;12307;50.828;6.080;2023-06-22T14:32:44;26.70;78.40
24144;DHT22;12307;50.828;6.080;2023-06-22T14:35:10;26.70;78.40
24144;DHT22;12307;50.828;6.080;2023-06-22T14:37:36;26.70;78.50
24144;DHT22;12307;50.828;6.080;2023-06-22T14:40:02;26.70;78.60
24144;DHT22;12307;50.828;6.080;2023-06-22T14:42:27;26.70;78.60
24144;DHT22;12307;50.828;6.080;2023-06-22T14:44:55;26.70;78.70
24144;DHT22;12307;50.828;6.080;2023-06-22T14:47:21;26.70;78.60
24144;DHT22;12307;50.828;6.080;2023-06-22T14:49:48;26.70;78.60
24144;DHT22;12307;50.828;6.080;2023-06-22T14:52:14;26.70;78.60
24144;DHT22;12307;50.828;6.080;2023-06-22T14:54:40;26.70;78.60
24144;DHT22;12307;50.828;6.080;2023-06-22T14:57:05;26.70;78.60
24144;DHT22;12307;50.828;6.080;2023-06-22T14:59:31;26.70;78.60
24144;DHT22;12307;50.828;6.080;2023-06-22T15:01:57;26.60;78.60
24144;DHT22;12307;50.828;6.080;2023-06-22T15:04:22;26.60;78.90
24144;DHT22;12307;50.828;6.080;2023-06-22T15:06:49;26.60;78.70
24144;DHT22;12307;50.828;6.080;2023-06-22T15:09:15;26.60;78.90
24144;DHT22;12307;50.828;6.080;2023-06-22T15:11:41;26.60;79.10
24144;DHT22;12307;50.828;6.080;2023-06-22T15:14:06;26.50;79.00
24144;DHT22;12307;50.828;6.080;2023-06-22T15:16:32;26.50;79.00
24144;DHT22;12307;50.828;6.080;2023-06-22T15:18:58;26.50;79.10
24144;DHT22;12307;50.828;6.080;2023-06-22T15:21:24;26.50;79.20
24144;DHT22;12307;50.828;6.080;2023-06-22T15:23:52;26.50;80.00
24144;DHT22;12307;50.828;6.080;2023-06-22T15:26:17;26.40;79.20
24144;DHT22;12307;50.828;6.080;2023-06-22T15:28:43;26.40;79.20